메인 페이지
METAR-TAF:

METAR-TAF

공항 :

Valdosta Regional Airport

Valdosta, 조지아, 미국

위도: 30-47N, 경도: 083-17W, 고도: 62m

현재 날씨관측

예보는 41분 전, 17:53시(UTC)에 발표되었습니다.
온도 28°C
습도 28%
기압 1014 hPa
시정: 16.1km
맑음

METAR: KVLD 041753Z 10SM CLR 28/08 A2993 RMK AO2 SLP143 T02780078 10278 20128 58020

시각: 14:34 (18:34 UTC)

예보

예보는 1 시간 14분 전, 17:20시(UTC)에 발표되었습니다.
예보 대상 시간: 04일 18시부터 05일 18시까지 (UTC)
북북서5kt
시정: 10km
고도 25000ft 상공 구름 조금
05일 1400시부터 (UTC)
동남동4kt
시정: 10km
고도 6000ft 상공 구름 많음

TAF: KVLD 041720Z 0418/0518 33005KT P6SM FEW250 FM051400 11004KT P6SM BKN060

4,000개 이상의 공항 관측 자료 및 예보 (METAR 및 TAF 보고).

지도상에서 검색 가능한 기상관측소가 노란 점과 빨간 점으로 표시되어 있습니다.

기상관측소 명을 보려면 표시 위로 마우스를 이동하세요.

날씨 관측과 예보를 보려면 클릭하세요.

지도 변경 : 확대하려면 엑스 표시가 있는 녹색 버튼, 축소하려면 빼기 표시가 있는 녹색 버튼, 다음 페이지의 지도를 보려면 녹색 화살표를 클릭하세요.


METAR-TAF: